sensor_id;sensor_type;location;lat;lon;timestamp;temperature;humidity
20560;DHT22;10438;51.454;6.718;2023-03-02T00:01:17;3.10;55.80
20560;DHT22;10438;51.454;6.718;2023-03-02T00:03:43;3.00;55.30
20560;DHT22;10438;51.454;6.718;2023-03-02T00:06:09;3.00;54.40
20560;DHT22;10438;51.454;6.718;2023-03-02T00:08:36;3.00;55.30
20560;DHT22;10438;51.454;6.718;2023-03-02T00:11:02;3.00;57.10
20560;DHT22;10438;51.454;6.718;2023-03-02T00:13:29;2.90;57.50
20560;DHT22;10438;51.454;6.718;2023-03-02T00:15:55;2.90;58.00
20560;DHT22;10438;51.454;6.718;2023-03-02T00:18:20;2.90;58.70
20560;DHT22;10438;51.454;6.718;2023-03-02T00:20:46;2.90;57.70
20560;DHT22;10438;51.454;6.718;2023-03-02T00:23:11;2.80;57.40
20560;DHT22;10438;51.454;6.718;2023-03-02T00:25:38;2.80;58.40
20560;DHT22;10438;51.454;6.718;2023-03-02T00:28:04;2.80;59.50
20560;DHT22;10438;51.454;6.718;2023-03-02T00:30:30;2.80;59.60
20560;DHT22;10438;51.454;6.718;2023-03-02T00:32:55;2.80;60.30
20560;DHT22;10438;51.454;6.718;2023-03-02T00:35:22;2.80;59.20
20560;DHT22;10438;51.454;6.718;2023-03-02T00:37:48;2.90;59.60
20560;DHT22;10438;51.454;6.718;2023-03-02T00:40:14;2.80;61.50
20560;DHT22;10438;51.454;6.718;2023-03-02T00:42:40;2.80;60.60
20560;DHT22;10438;51.454;6.718;2023-03-02T00:45:06;2.80;59.60
20560;DHT22;10438;51.454;6.718;2023-03-02T00:47:33;2.80;60.60
20560;DHT22;10438;51.454;6.718;2023-03-02T00:49:59;2.80;61.50
20560;DHT22;10438;51.454;6.718;2023-03-02T00:52:25;2.70;65.20
20560;DHT22;10438;51.454;6.718;2023-03-02T00:54:51;2.70;63.90
20560;DHT22;10438;51.454;6.718;2023-03-02T00:57:16;2.70;64.50
20560;DHT22;10438;51.454;6.718;2023-03-02T00:59:42;2.60;68.40
20560;DHT22;10438;51.454;6.718;2023-03-02T01:02:07;2.60;68.60
20560;DHT22;10438;51.454;6.718;2023-03-02T01:04:36;2.60;65.30
20560;DHT22;10438;51.454;6.718;2023-03-02T01:07:11;2.50;67.00
20560;DHT22;10438;51.454;6.718;2023-03-02T01:09:38;2.50;67.20
20560;DHT22;10438;51.454;6.718;2023-03-02T01:12:05;2.50;69.80
20560;DHT22;10438;51.454;6.718;2023-03-02T01:14:34;2.40;69.40
20560;DHT22;10438;51.454;6.718;2023-03-02T01:17:00;2.40;70.50
20560;DHT22;10438;51.454;6.718;2023-03-02T01:19:26;2.40;71.70
20560;DHT22;10438;51.454;6.718;2023-03-02T01:21:52;2.30;71.00
20560;DHT22;10438;51.454;6.718;2023-03-02T01:24:17;2.30;72.10
20560;DHT22;10438;51.454;6.718;2023-03-02T01:26:43;2.30;73.70
20560;DHT22;10438;51.454;6.718;2023-03-02T01:29:08;2.30;73.10
20560;DHT22;10438;51.454;6.718;2023-03-02T01:31:35;2.30;72.80
20560;DHT22;10438;51.454;6.718;2023-03-02T01:34:01;2.30;75.80
20560;DHT22;10438;51.454;6.718;2023-03-02T01:36:27;2.30;71.70
20560;DHT22;10438;51.454;6.718;2023-03-02T01:38:53;2.30;70.40
20560;DHT22;10438;51.454;6.718;2023-03-02T01:41:18;2.40;72.50
20560;DHT22;10438;51.454;6.718;2023-03-02T01:43:44;2.30;75.70
20560;DHT22;10438;51.454;6.718;2023-03-02T01:46:24;2.30;78.50
20560;DHT22;10438;51.454;6.718;2023-03-02T01:48:56;2.30;81.40
20560;DHT22;10438;51.454;6.718;2023-03-02T01:51:24;2.30;81.80
20560;DHT22;10438;51.454;6.718;2023-03-02T01:54:05;2.20;82.10
20560;DHT22;10438;51.454;6.718;2023-03-02T01:56:35;2.20;82.30
20560;DHT22;10438;51.454;6.718;2023-03-02T01:59:06;2.20;83.80
20560;DHT22;10438;51.454;6.718;2023-03-02T02:01:35;2.10;84.70
20560;DHT22;10438;51.454;6.718;2023-03-02T02:04:02;2.10;85.10
20560;DHT22;10438;51.454;6.718;2023-03-02T02:06:38;2.00;85.90
20560;DHT22;10438;51.454;6.718;2023-03-02T02:09:08;2.00;86.50
20560;DHT22;10438;51.454;6.718;2023-03-02T02:11:35;2.00;86.50
20560;DHT22;10438;51.454;6.718;2023-03-02T02:14:02;1.90;87.10
20560;DHT22;10438;51.454;6.718;2023-03-02T02:16:30;1.90;88.80
20560;DHT22;10438;51.454;6.718;2023-03-02T02:18:56;1.90;89.40
20560;DHT22;10438;51.454;6.718;2023-03-02T02:21:23;1.80;90.00
20560;DHT22;10438;51.454;6.718;2023-03-02T02:26:30;1.70;90.10
20560;DHT22;10438;51.454;6.718;2023-03-02T02:29:04;1.70;88.80
20560;DHT22;10438;51.454;6.718;2023-03-02T02:31:42;1.70;88.00
20560;DHT22;10438;51.454;6.718;2023-03-02T02:34:24;1.70;87.00
20560;DHT22;10438;51.454;6.718;2023-03-02T02:37:05;1.70;89.00
20560;DHT22;10438;51.454;6.718;2023-03-02T02:39:35;1.70;88.50
20560;DHT22;10438;51.454;6.718;2023-03-02T02:42:06;1.60;88.60
20560;DHT22;10438;51.454;6.718;2023-03-02T02:44:32;1.60;88.60
20560;DHT22;10438;51.454;6.718;2023-03-02T02:46:58;1.60;89.00
20560;DHT22;10438;51.454;6.718;2023-03-02T02:49:33;1.60;87.90
20560;DHT22;10438;51.454;6.718;2023-03-02T02:52:00;1.60;90.20
20560;DHT22;10438;51.454;6.718;2023-03-02T02:54:28;1.50;90.00
20560;DHT22;10438;51.454;6.718;2023-03-02T02:56:55;1.50;90.10
20560;DHT22;10438;51.454;6.718;2023-03-02T02:59:28;1.60;90.70
20560;DHT22;10438;51.454;6.718;2023-03-02T03:01:55;1.60;90.10
20560;DHT22;10438;51.454;6.718;2023-03-02T03:04:27;1.60;90.20
20560;DHT22;10438;51.454;6.718;2023-03-02T03:07:03;1.60;90.30
20560;DHT22;10438;51.454;6.718;2023-03-02T03:09:30;1.60;90.10
20560;DHT22;10438;51.454;6.718;2023-03-02T03:12:15;1.60;90.20
20560;DHT22;10438;51.454;6.718;2023-03-02T03:14:42;1.60;90.40
20560;DHT22;10438;51.454;6.718;2023-03-02T03:17:08;1.70;90.80
20560;DHT22;10438;51.454;6.718;2023-03-02T03:19:44;1.60;90.90
20560;DHT22;10438;51.454;6.718;2023-03-02T03:22:11;1.60;91.40
20560;DHT22;10438;51.454;6.718;2023-03-02T03:24:38;1.60;91.90
20560;DHT22;10438;51.454;6.718;2023-03-02T03:27:06;1.60;93.00
20560;DHT22;10438;51.454;6.718;2023-03-02T03:29:33;1.50;92.90
20560;DHT22;10438;51.454;6.718;2023-03-02T03:32:01;1.50;92.80
20560;DHT22;10438;51.454;6.718;2023-03-02T03:34:28;1.50;93.20
20560;DHT22;10438;51.454;6.718;2023-03-02T03:36:55;1.50;93.40
20560;DHT22;10438;51.454;6.718;2023-03-02T03:39:29;1.50;92.70
20560;DHT22;10438;51.454;6.718;2023-03-02T03:41:54;1.40;93.50
20560;DHT22;10438;51.454;6.718;2023-03-02T03:44:20;1.40;92.90
20560;DHT22;10438;51.454;6.718;2023-03-02T03:46:46;1.40;92.90
20560;DHT22;10438;51.454;6.718;2023-03-02T03:49:11;1.40;92.20
20560;DHT22;10438;51.454;6.718;2023-03-02T03:51:37;1.40;92.20
20560;DHT22;10438;51.454;6.718;2023-03-02T03:54:04;1.40;91.80
20560;DHT22;10438;51.454;6.718;2023-03-02T03:56:35;1.40;91.80
20560;DHT22;10438;51.454;6.718;2023-03-02T03:59:01;1.40;92.00
20560;DHT22;10438;51.454;6.718;2023-03-02T04:04:00;1.40;91.40
20560;DHT22;10438;51.454;6.718;2023-03-02T04:06:26;1.40;91.20
20560;DHT22;10438;51.454;6.718;2023-03-02T04:08:51;1.40;91.20
20560;DHT22;10438;51.454;6.718;2023-03-02T04:11:17;1.40;91.90
20560;DHT22;10438;51.454;6.718;2023-03-02T04:13:42;1.40;90.10
20560;DHT22;10438;51.454;6.718;2023-03-02T04:16:08;1.40;90.20
20560;DHT22;10438;51.454;6.718;2023-03-02T04:18:33;1.40;90.20
20560;DHT22;10438;51.454;6.718;2023-03-02T04:20:59;1.40;89.70
20560;DHT22;10438;51.454;6.718;2023-03-02T04:23:24;1.40;90.00
20560;DHT22;10438;51.454;6.718;2023-03-02T04:25:50;1.40;89.20
20560;DHT22;10438;51.454;6.718;2023-03-02T04:28:15;1.40;90.10
20560;DHT22;10438;51.454;6.718;2023-03-02T04:30:41;1.30;90.50
20560;DHT22;10438;51.454;6.718;2023-03-02T04:33:07;1.30;91.30
20560;DHT22;10438;51.454;6.718;2023-03-02T04:35:33;1.30;91.90
20560;DHT22;10438;51.454;6.718;2023-03-02T04:37:59;1.30;93.10
20560;DHT22;10438;51.454;6.718;2023-03-02T04:40:25;1.20;94.00
20560;DHT22;10438;51.454;6.718;2023-03-02T04:42:50;1.20;93.30
20560;DHT22;10438;51.454;6.718;2023-03-02T04:45:16;1.20;93.50
20560;DHT22;10438;51.454;6.718;2023-03-02T04:47:42;1.10;93.90
20560;DHT22;10438;51.454;6.718;2023-03-02T04:50:09;1.10;94.10
20560;DHT22;10438;51.454;6.718;2023-03-02T04:52:36;1.10;94.70
20560;DHT22;10438;51.454;6.718;2023-03-02T04:55:01;1.10;94.80
20560;DHT22;10438;51.454;6.718;2023-03-02T04:57:27;1.10;95.50
20560;DHT22;10438;51.454;6.718;2023-03-02T04:59:53;1.10;94.70
20560;DHT22;10438;51.454;6.718;2023-03-02T05:02:18;1.20;93.80
20560;DHT22;10438;51.454;6.718;2023-03-02T05:04:44;1.20;93.10
20560;DHT22;10438;51.454;6.718;2023-03-02T05:07:09;1.30;91.80
20560;DHT22;10438;51.454;6.718;2023-03-02T05:09:35;1.30;90.70
20560;DHT22;10438;51.454;6.718;2023-03-02T05:12:00;1.40;90.50
20560;DHT22;10438;51.454;6.718;2023-03-02T05:14:27;1.30;90.50
20560;DHT22;10438;51.454;6.718;2023-03-02T05:16:52;1.30;91.50
20560;DHT22;10438;51.454;6.718;2023-03-02T05:19:18;1.40;92.30
20560;DHT22;10438;51.454;6.718;2023-03-02T05:21:44;1.30;93.70
20560;DHT22;10438;51.454;6.718;2023-03-02T05:24:11;1.30;93.70
20560;DHT22;10438;51.454;6.718;2023-03-02T05:26:37;1.30;94.40
20560;DHT22;10438;51.454;6.718;2023-03-02T05:29:02;1.40;93.80
20560;DHT22;10438;51.454;6.718;2023-03-02T05:31:33;1.30;93.40
20560;DHT22;10438;51.454;6.718;2023-03-02T05:34:00;1.30;93.90
20560;DHT22;10438;51.454;6.718;2023-03-02T05:36:26;1.30;94.10
20560;DHT22;10438;51.454;6.718;2023-03-02T05:38:51;1.30;93.60
20560;DHT22;10438;51.454;6.718;2023-03-02T05:41:17;1.30;92.40
20560;DHT22;10438;51.454;6.718;2023-03-02T05:43:43;1.20;92.40
20560;DHT22;10438;51.454;6.718;2023-03-02T05:46:08;1.30;92.40
20560;DHT22;10438;51.454;6.718;2023-03-02T05:48:34;1.20;91.60
20560;DHT22;10438;51.454;6.718;2023-03-02T05:50:59;1.20;91.50
20560;DHT22;10438;51.454;6.718;2023-03-02T05:53:25;1.20;91.50
20560;DHT22;10438;51.454;6.718;2023-03-02T05:55:51;1.20;92.40
20560;DHT22;10438;51.454;6.718;2023-03-02T05:58:18;1.10;92.50
20560;DHT22;10438;51.454;6.718;2023-03-02T06:00:45;1.10;93.30
20560;DHT22;10438;51.454;6.718;2023-03-02T06:03:11;1.20;91.00
20560;DHT22;10438;51.454;6.718;2023-03-02T06:05:36;1.20;90.80
20560;DHT22;10438;51.454;6.718;2023-03-02T06:08:02;1.20;91.20
20560;DHT22;10438;51.454;6.718;2023-03-02T06:10:28;1.20;90.40
20560;DHT22;10438;51.454;6.718;2023-03-02T06:12:54;1.20;90.40
20560;DHT22;10438;51.454;6.718;2023-03-02T06:15:20;1.20;91.60
20560;DHT22;10438;51.454;6.718;2023-03-02T06:17:45;1.10;91.80
20560;DHT22;10438;51.454;6.718;2023-03-02T06:20:12;1.10;92.40
20560;DHT22;10438;51.454;6.718;2023-03-02T06:22:40;1.10;93.10
20560;DHT22;10438;51.454;6.718;2023-03-02T06:25:11;1.10;93.30
20560;DHT22;10438;51.454;6.718;2023-03-02T06:27:38;1.10;92.90
20560;DHT22;10438;51.454;6.718;2023-03-02T06:30:05;1.10;93.70
20560;DHT22;10438;51.454;6.718;2023-03-02T06:32:31;1.10;93.10
20560;DHT22;10438;51.454;6.718;2023-03-02T06:35:03;1.10;93.20
20560;DHT22;10438;51.454;6.718;2023-03-02T06:37:29;1.10;93.10
20560;DHT22;10438;51.454;6.718;2023-03-02T06:39:56;1.10;92.60
20560;DHT22;10438;51.454;6.718;2023-03-02T06:42:22;1.20;93.30
20560;DHT22;10438;51.454;6.718;2023-03-02T06:44:48;1.10;93.40
20560;DHT22;10438;51.454;6.718;2023-03-02T06:47:15;1.10;94.20
20560;DHT22;10438;51.454;6.718;2023-03-02T06:49:41;1.10;94.30
20560;DHT22;10438;51.454;6.718;2023-03-02T06:52:06;1.10;94.60
20560;DHT22;10438;51.454;6.718;2023-03-02T06:54:32;1.10;94.60
20560;DHT22;10438;51.454;6.718;2023-03-02T06:56:58;1.20;94.00
20560;DHT22;10438;51.454;6.718;2023-03-02T06:59:24;1.20;94.50
20560;DHT22;10438;51.454;6.718;2023-03-02T07:01:50;1.30;93.70
20560;DHT22;10438;51.454;6.718;2023-03-02T07:04:18;1.20;91.60
20560;DHT22;10438;51.454;6.718;2023-03-02T07:06:44;1.30;90.30
20560;DHT22;10438;51.454;6.718;2023-03-02T07:09:09;1.30;90.00
20560;DHT22;10438;51.454;6.718;2023-03-02T07:11:35;1.30;89.20
20560;DHT22;10438;51.454;6.718;2023-03-02T07:14:01;1.30;86.30
20560;DHT22;10438;51.454;6.718;2023-03-02T07:16:27;1.40;85.70
20560;DHT22;10438;51.454;6.718;2023-03-02T07:18:53;1.40;87.00
20560;DHT22;10438;51.454;6.718;2023-03-02T07:21:19;1.40;85.30
20560;DHT22;10438;51.454;6.718;2023-03-02T07:23:44;1.50;87.50
20560;DHT22;10438;51.454;6.718;2023-03-02T07:26:10;1.50;88.40
20560;DHT22;10438;51.454;6.718;2023-03-02T07:28:36;1.60;89.30
20560;DHT22;10438;51.454;6.718;2023-03-02T07:31:06;1.60;87.60
20560;DHT22;10438;51.454;6.718;2023-03-02T07:33:33;1.70;87.40
20560;DHT22;10438;51.454;6.718;2023-03-02T07:35:58;1.70;89.00
20560;DHT22;10438;51.454;6.718;2023-03-02T07:38:24;1.80;86.00
20560;DHT22;10438;51.454;6.718;2023-03-02T07:40:49;1.80;85.30
20560;DHT22;10438;51.454;6.718;2023-03-02T07:43:16;1.80;84.70
20560;DHT22;10438;51.454;6.718;2023-03-02T07:45:41;1.90;77.40
20560;DHT22;10438;51.454;6.718;2023-03-02T07:48:07;1.90;79.10
20560;DHT22;10438;51.454;6.718;2023-03-02T07:50:33;1.90;79.90
20560;DHT22;10438;51.454;6.718;2023-03-02T07:52:58;1.90;79.00
20560;DHT22;10438;51.454;6.718;2023-03-02T07:55:24;2.00;77.10
20560;DHT22;10438;51.454;6.718;2023-03-02T07:57:50;2.10;75.10
20560;DHT22;10438;51.454;6.718;2023-03-02T08:00:16;2.10;73.50
20560;DHT22;10438;51.454;6.718;2023-03-02T08:02:41;2.20;74.40
20560;DHT22;10438;51.454;6.718;2023-03-02T08:05:09;2.20;77.10
20560;DHT22;10438;51.454;6.718;2023-03-02T08:07:35;2.20;77.00
20560;DHT22;10438;51.454;6.718;2023-03-02T08:10:01;2.30;77.50
20560;DHT22;10438;51.454;6.718;2023-03-02T08:12:27;2.30;79.00
20560;DHT22;10438;51.454;6.718;2023-03-02T08:14:53;2.30;77.50
20560;DHT22;10438;51.454;6.718;2023-03-02T08:17:18;2.40;75.80
20560;DHT22;10438;51.454;6.718;2023-03-02T08:19:44;2.40;70.70
20560;DHT22;10438;51.454;6.718;2023-03-02T08:22:10;2.50;73.60
20560;DHT22;10438;51.454;6.718;2023-03-02T08:24:36;2.60;66.50
20560;DHT22;10438;51.454;6.718;2023-03-02T08:27:03;2.60;65.80
20560;DHT22;10438;51.454;6.718;2023-03-02T08:29:29;2.70;62.10
20560;DHT22;10438;51.454;6.718;2023-03-02T08:31:55;2.70;63.60
20560;DHT22;10438;51.454;6.718;2023-03-02T08:34:20;2.80;56.90
20560;DHT22;10438;51.454;6.718;2023-03-02T08:36:46;2.90;59.70
20560;DHT22;10438;51.454;6.718;2023-03-02T08:39:12;3.00;55.00
20560;DHT22;10438;51.454;6.718;2023-03-02T08:41:37;3.00;57.10
20560;DHT22;10438;51.454;6.718;2023-03-02T08:44:03;3.10;55.30
20560;DHT22;10438;51.454;6.718;2023-03-02T08:46:29;3.20;56.60
20560;DHT22;10438;51.454;6.718;2023-03-02T08:48:55;3.30;47.30
20560;DHT22;10438;51.454;6.718;2023-03-02T08:51:23;3.40;49.00
20560;DHT22;10438;51.454;6.718;2023-03-02T08:53:51;3.50;39.90
20560;DHT22;10438;51.454;6.718;2023-03-02T08:56:37;3.60;36.10
20560;DHT22;10438;51.454;6.718;2023-03-02T08:59:08;3.60;37.60
20560;DHT22;10438;51.454;6.718;2023-03-02T09:01:36;3.70;30.90
20560;DHT22;10438;51.454;6.718;2023-03-02T09:04:03;3.90;32.40
20560;DHT22;10438;51.454;6.718;2023-03-02T09:06:31;4.00;32.20
20560;DHT22;10438;51.454;6.718;2023-03-02T09:08:57;4.10;25.20
20560;DHT22;10438;51.454;6.718;2023-03-02T09:11:23;4.30;23.80
20560;DHT22;10438;51.454;6.718;2023-03-02T09:13:48;4.60;18.50
20560;DHT22;10438;51.454;6.718;2023-03-02T09:16:14;5.00;19.40
20560;DHT22;10438;51.454;6.718;2023-03-02T09:18:40;5.40;5.10
20560;DHT22;10438;51.454;6.718;2023-03-02T09:21:06;5.40;1.00
20560;DHT22;10438;51.454;6.718;2023-03-02T09:23:32;5.60;1.00
20560;DHT22;10438;51.454;6.718;2023-03-02T09:25:59;5.80;1.00
20560;DHT22;10438;51.454;6.718;2023-03-02T09:28:25;5.90;1.00
20560;DHT22;10438;51.454;6.718;2023-03-02T09:30:59;5.80;1.00
20560;DHT22;10438;51.454;6.718;2023-03-02T09:33:25;5.90;1.00
20560;DHT22;10438;51.454;6.718;2023-03-02T09:35:51;6.10;1.00
20560;DHT22;10438;51.454;6.718;2023-03-02T09:38:17;6.60;1.00
20560;DHT22;10438;51.454;6.718;2023-03-02T09:41:01;6.70;1.00
20560;DHT22;10438;51.454;6.718;2023-03-02T09:43:36;7.10;1.00
20560;DHT22;10438;51.454;6.718;2023-03-02T09:46:15;7.20;1.00
20560;DHT22;10438;51.454;6.718;2023-03-02T09:48:52;7.50;1.00
20560;DHT22;10438;51.454;6.718;2023-03-02T09:54:14;7.30;1.00
20560;DHT22;10438;51.454;6.718;2023-03-02T09:56:46;7.40;1.00
20560;DHT22;10438;51.454;6.718;2023-03-02T09:59:38;7.80;1.00
20560;DHT22;10438;51.454;6.718;2023-03-02T10:02:23;7.80;1.00
20560;DHT22;10438;51.454;6.718;2023-03-02T10:04:52;7.60;1.00
20560;DHT22;10438;51.454;6.718;2023-03-02T10:07:26;7.90;1.00
20560;DHT22;10438;51.454;6.718;2023-03-02T10:09:54;7.70;1.00
20560;DHT22;10438;51.454;6.718;2023-03-02T10:12:54;8.20;1.00
20560;DHT22;10438;51.454;6.718;2023-03-02T10:15:28;8.80;1.00
20560;DHT22;10438;51.454;6.718;2023-03-02T10:23:23;9.50;1.00
20560;DHT22;10438;51.454;6.718;2023-03-02T10:26:10;9.80;1.00
20560;DHT22;10438;51.454;6.718;2023-03-02T10:29:20;10.20;1.00
20560;DHT22;10438;51.454;6.718;2023-03-02T10:31:39;10.10;1.00
20560;DHT22;10438;51.454;6.718;2023-03-02T10:34:06;10.60;1.00
20560;DHT22;10438;51.454;6.718;2023-03-02T10:36:40;11.00;1.00
20560;DHT22;10438;51.454;6.718;2023-03-02T10:39:11;10.20;1.00
20560;DHT22;10438;51.454;6.718;2023-03-02T10:41:44;10.30;1.00
20560;DHT22;10438;51.454;6.718;2023-03-02T10:44:21;11.00;1.00
20560;DHT22;10438;51.454;6.718;2023-03-02T10:46:48;11.10;1.00
20560;DHT22;10438;51.454;6.718;2023-03-02T10:49:31;11.40;1.00
20560;DHT22;10438;51.454;6.718;2023-03-02T10:52:08;11.50;1.00
20560;DHT22;10438;51.454;6.718;2023-03-02T10:54:36;11.70;1.00
20560;DHT22;10438;51.454;6.718;2023-03-02T10:57:05;10.50;1.00
20560;DHT22;10438;51.454;6.718;2023-03-02T10:59:45;10.30;1.00
20560;DHT22;10438;51.454;6.718;2023-03-02T11:02:22;10.10;1.00
20560;DHT22;10438;51.454;6.718;2023-03-02T11:04:54;10.10;1.00
20560;DHT22;10438;51.454;6.718;2023-03-02T11:07:22;11.30;1.00
20560;DHT22;10438;51.454;6.718;2023-03-02T11:10:06;11.40;1.00
20560;DHT22;10438;51.454;6.718;2023-03-02T11:12:35;10.70;1.00
20560;DHT22;10438;51.454;6.718;2023-03-02T11:17:44;11.80;1.00
20560;DHT22;10438;51.454;6.718;2023-03-02T11:20:23;12.50;1.00
20560;DHT22;10438;51.454;6.718;2023-03-02T11:25:40;12.60;1.00
20560;DHT22;10438;51.454;6.718;2023-03-02T11:28:34;13.00;1.00
20560;DHT22;10438;51.454;6.718;2023-03-02T11:31:04;11.90;1.00
20560;DHT22;10438;51.454;6.718;2023-03-02T11:33:50;11.50;1.00
20560;DHT22;10438;51.454;6.718;2023-03-02T11:36:21;11.30;1.00
20560;DHT22;10438;51.454;6.718;2023-03-02T11:38:52;10.70;1.00
20560;DHT22;10438;51.454;6.718;2023-03-02T11:41:30;11.10;1.00
20560;DHT22;10438;51.454;6.718;2023-03-02T11:44:05;11.10;1.00
20560;DHT22;10438;51.454;6.718;2023-03-02T11:46:32;11.30;1.00
20560;DHT22;10438;51.454;6.718;2023-03-02T11:49:08;11.40;1.00
20560;DHT22;10438;51.454;6.718;2023-03-02T11:51:38;10.80;1.00
20560;DHT22;10438;51.454;6.718;2023-03-02T11:54:20;10.40;1.00
20560;DHT22;10438;51.454;6.718;2023-03-02T11:56:53;10.20;1.00
20560;DHT22;10438;51.454;6.718;2023-03-02T11:59:20;10.10;1.00
20560;DHT22;10438;51.454;6.718;2023-03-02T12:01:50;10.50;1.00
20560;DHT22;10438;51.454;6.718;2023-03-02T12:04:27;10.50;1.00
20560;DHT22;10438;51.454;6.718;2023-03-02T12:06:53;10.50;1.00
20560;DHT22;10438;51.454;6.718;2023-03-02T12:11:55;11.60;1.00
20560;DHT22;10438;51.454;6.718;2023-03-02T12:14:38;11.60;1.00
20560;DHT22;10438;51.454;6.718;2023-03-02T12:22:45;12.70;1.00
20560;DHT22;10438;51.454;6.718;2023-03-02T12:27:43;12.80;1.00
20560;DHT22;10438;51.454;6.718;2023-03-02T12:33:16;12.60;1.00
20560;DHT22;10438;51.454;6.718;2023-03-02T12:35:42;12.90;1.00
20560;DHT22;10438;51.454;6.718;2023-03-02T12:38:28;11.90;1.00
20560;DHT22;10438;51.454;6.718;2023-03-02T12:44:21;12.20;1.00
20560;DHT22;10438;51.454;6.718;2023-03-02T12:46:48;12.70;1.00
20560;DHT22;10438;51.454;6.718;2023-03-02T12:49:43;12.60;1.00
20560;DHT22;10438;51.454;6.718;2023-03-02T12:52:30;11.90;1.00
20560;DHT22;10438;51.454;6.718;2023-03-02T12:55:15;12.30;1.00
20560;DHT22;10438;51.454;6.718;2023-03-02T12:57:53;11.70;1.00
20560;DHT22;10438;51.454;6.718;2023-03-02T13:00:22;11.10;1.00
20560;DHT22;10438;51.454;6.718;2023-03-02T13:02:50;10.90;1.00
20560;DHT22;10438;51.454;6.718;2023-03-02T13:05:35;11.40;1.00
20560;DHT22;10438;51.454;6.718;2023-03-02T13:08:05;11.80;1.00
20560;DHT22;10438;51.454;6.718;2023-03-02T13:10:40;11.90;1.00
20560;DHT22;10438;51.454;6.718;2023-03-02T13:15:54;12.10;1.00
20560;DHT22;10438;51.454;6.718;2023-03-02T13:18:21;12.10;1.00
20560;DHT22;10438;51.454;6.718;2023-03-02T13:20:49;11.80;1.00
20560;DHT22;10438;51.454;6.718;2023-03-02T13:23:16;12.00;1.00
20560;DHT22;10438;51.454;6.718;2023-03-02T13:25:49;11.80;1.00
20560;DHT22;10438;51.454;6.718;2023-03-02T13:28:26;12.20;1.00
20560;DHT22;10438;51.454;6.718;2023-03-02T13:31:04;12.40;1.00
20560;DHT22;10438;51.454;6.718;2023-03-02T13:33:32;12.40;1.00
20560;DHT22;10438;51.454;6.718;2023-03-02T13:35:59;12.60;1.00
20560;DHT22;10438;51.454;6.718;2023-03-02T13:38:35;12.10;1.00
20560;DHT22;10438;51.454;6.718;2023-03-02T13:41:01;11.70;1.00
20560;DHT22;10438;51.454;6.718;2023-03-02T13:45:58;12.80;1.00
20560;DHT22;10438;51.454;6.718;2023-03-02T13:48:25;12.70;1.00
20560;DHT22;10438;51.454;6.718;2023-03-02T13:51:13;13.70;1.00
20560;DHT22;10438;51.454;6.718;2023-03-02T13:53:44;13.60;1.00
20560;DHT22;10438;51.454;6.718;2023-03-02T13:56:15;13.20;1.00
20560;DHT22;10438;51.454;6.718;2023-03-02T13:58:42;13.10;1.00
20560;DHT22;10438;51.454;6.718;2023-03-02T14:01:10;13.40;1.00
20560;DHT22;10438;51.454;6.718;2023-03-02T14:03:37;14.00;1.00
20560;DHT22;10438;51.454;6.718;2023-03-02T14:06:03;14.00;1.00
20560;DHT22;10438;51.454;6.718;2023-03-02T14:08:30;13.60;1.00
20560;DHT22;10438;51.454;6.718;2023-03-02T14:10:57;14.00;1.00
20560;DHT22;10438;51.454;6.718;2023-03-02T14:13:42;13.80;1.00
20560;DHT22;10438;51.454;6.718;2023-03-02T14:16:11;14.20;1.00
20560;DHT22;10438;51.454;6.718;2023-03-02T14:18:48;14.40;1.00
20560;DHT22;10438;51.454;6.718;2023-03-02T14:21:19;14.30;1.00
20560;DHT22;10438;51.454;6.718;2023-03-02T14:23:45;14.80;1.00
20560;DHT22;10438;51.454;6.718;2023-03-02T14:28:43;14.20;1.00
20560;DHT22;10438;51.454;6.718;2023-03-02T14:31:09;13.80;1.00
20560;DHT22;10438;51.454;6.718;2023-03-02T14:33:35;13.80;1.00
20560;DHT22;10438;51.454;6.718;2023-03-02T14:36:01;13.10;1.00
20560;DHT22;10438;51.454;6.718;2023-03-02T14:38:28;12.40;1.00
20560;DHT22;10438;51.454;6.718;2023-03-02T14:40:53;12.40;1.00
20560;DHT22;10438;51.454;6.718;2023-03-02T14:43:19;12.80;1.00
20560;DHT22;10438;51.454;6.718;2023-03-02T14:45:47;12.10;1.00
20560;DHT22;10438;51.454;6.718;2023-03-02T14:48:13;12.00;1.00
20560;DHT22;10438;51.454;6.718;2023-03-02T14:50:42;12.20;1.00
20560;DHT22;10438;51.454;6.718;2023-03-02T14:53:16;12.20;1.00
20560;DHT22;10438;51.454;6.718;2023-03-02T14:55:43;12.00;1.00
20560;DHT22;10438;51.454;6.718;2023-03-02T14:58:15;11.90;1.00
20560;DHT22;10438;51.454;6.718;2023-03-02T15:00:42;12.00;1.00
20560;DHT22;10438;51.454;6.718;2023-03-02T15:03:13;11.90;1.00
20560;DHT22;10438;51.454;6.718;2023-03-02T15:05:40;11.90;1.00
20560;DHT22;10438;51.454;6.718;2023-03-02T15:08:07;12.10;1.00
20560;DHT22;10438;51.454;6.718;2023-03-02T15:10:33;12.20;1.00
20560;DHT22;10438;51.454;6.718;2023-03-02T15:12:59;12.30;1.00
20560;DHT22;10438;51.454;6.718;2023-03-02T15:15:24;12.20;1.00
20560;DHT22;10438;51.454;6.718;2023-03-02T15:17:51;12.30;1.00
20560;DHT22;10438;51.454;6.718;2023-03-02T15:20:16;12.30;1.00
20560;DHT22;10438;51.454;6.718;2023-03-02T15:22:42;12.80;1.00
20560;DHT22;10438;51.454;6.718;2023-03-02T15:25:08;13.40;1.00
20560;DHT22;10438;51.454;6.718;2023-03-02T15:27:35;13.70;1.00
20560;DHT22;10438;51.454;6.718;2023-03-02T15:30:01;14.00;1.00
20560;DHT22;10438;51.454;6.718;2023-03-02T15:32:26;14.10;1.00
20560;DHT22;10438;51.454;6.718;2023-03-02T15:34:52;13.60;1.00
20560;DHT22;10438;51.454;6.718;2023-03-02T15:37:17;12.60;1.00
20560;DHT22;10438;51.454;6.718;2023-03-02T15:39:43;12.00;1.00
20560;DHT22;10438;51.454;6.718;2023-03-02T15:42:08;11.50;1.00
20560;DHT22;10438;51.454;6.718;2023-03-02T15:44:34;11.20;1.00
20560;DHT22;10438;51.454;6.718;2023-03-02T15:47:00;11.00;1.00
20560;DHT22;10438;51.454;6.718;2023-03-02T15:49:26;10.80;1.00
20560;DHT22;10438;51.454;6.718;2023-03-02T15:51:54;10.80;1.00
20560;DHT22;10438;51.454;6.718;2023-03-02T15:54:22;10.50;1.00
20560;DHT22;10438;51.454;6.718;2023-03-02T15:56:47;10.40;1.00
20560;DHT22;10438;51.454;6.718;2023-03-02T15:59:16;10.40;1.00
20560;DHT22;10438;51.454;6.718;2023-03-02T16:01:42;10.20;1.00
20560;DHT22;10438;51.454;6.718;2023-03-02T16:04:08;10.20;1.00
20560;DHT22;10438;51.454;6.718;2023-03-02T16:06:33;10.20;1.00
20560;DHT22;10438;51.454;6.718;2023-03-02T16:08:59;10.10;1.00
20560;DHT22;10438;51.454;6.718;2023-03-02T16:11:24;10.00;1.00
20560;DHT22;10438;51.454;6.718;2023-03-02T16:13:50;10.00;1.00
20560;DHT22;10438;51.454;6.718;2023-03-02T16:16:17;9.90;1.00
20560;DHT22;10438;51.454;6.718;2023-03-02T16:18:48;9.80;1.00
20560;DHT22;10438;51.454;6.718;2023-03-02T16:21:14;9.80;1.00
20560;DHT22;10438;51.454;6.718;2023-03-02T16:23:39;9.70;1.00
20560;DHT22;10438;51.454;6.718;2023-03-02T16:26:07;9.70;1.00
20560;DHT22;10438;51.454;6.718;2023-03-02T16:28:32;9.60;1.00
20560;DHT22;10438;51.454;6.718;2023-03-02T16:31:03;9.50;1.00
20560;DHT22;10438;51.454;6.718;2023-03-02T16:33:29;9.40;1.00
20560;DHT22;10438;51.454;6.718;2023-03-02T16:35:54;9.40;1.00
20560;DHT22;10438;51.454;6.718;2023-03-02T16:38:20;9.30;1.00
20560;DHT22;10438;51.454;6.718;2023-03-02T16:40:45;9.30;1.00